createdAt,value
2023-03-29T00:01:35.063Z,5.97
2023-03-29T00:04:04.271Z,5.80
2023-03-29T00:06:33.376Z,5.53
2023-03-29T00:09:01.696Z,5.27
2023-03-29T00:11:28.904Z,5.60
2023-03-29T00:13:56.187Z,5.47
2023-03-29T00:16:23.735Z,5.10
2023-03-29T00:18:51.065Z,5.07
2023-03-29T00:21:18.311Z,5.27
2023-03-29T00:23:45.660Z,5.67
2023-03-29T00:26:12.802Z,5.67
2023-03-29T00:28:40.094Z,5.20
2023-03-29T00:31:08.509Z,4.73
2023-03-29T00:33:35.842Z,4.63
2023-03-29T00:36:04.412Z,4.80
2023-03-29T00:38:31.963Z,4.73
2023-03-29T00:40:59.503Z,4.27
2023-03-29T00:43:26.618Z,4.00
2023-03-29T00:45:54.013Z,4.10
2023-03-29T00:48:23.088Z,4.70
2023-03-29T00:50:52.911Z,4.60
2023-03-29T00:53:21.728Z,4.23
2023-03-29T00:55:52.623Z,4.37
2023-03-29T00:58:22.161Z,4.10
2023-03-29T01:00:52.972Z,4.07
2023-03-29T01:03:25.149Z,3.90
2023-03-29T01:05:54.266Z,3.67
2023-03-29T01:08:25.526Z,3.80
2023-03-29T01:11:11.547Z,3.70
2023-03-29T01:13:42.206Z,3.70
2023-03-29T01:16:10.933Z,3.83
2023-03-29T01:18:38.344Z,3.67
2023-03-29T01:21:17.124Z,3.50
2023-03-29T01:23:58.275Z,3.73
2023-03-29T01:26:33.304Z,3.50
2023-03-29T01:29:04.234Z,3.90
2023-03-29T01:31:33.230Z,4.23
2023-03-29T01:34:10.572Z,4.30
2023-03-29T01:36:40.349Z,3.73
2023-03-29T01:39:07.851Z,4.13
2023-03-29T01:41:35.179Z,3.87
2023-03-29T01:44:18.505Z,4.03
2023-03-29T01:46:45.668Z,4.63
2023-03-29T01:49:25.339Z,4.17
2023-03-29T01:51:55.212Z,4.33
2023-03-29T01:54:32.257Z,4.23
2023-03-29T01:56:59.856Z,4.13
2023-03-29T01:59:29.036Z,3.53
2023-03-29T02:01:59.818Z,4.00
2023-03-29T02:04:31.377Z,3.37
2023-03-29T02:06:59.460Z,3.40
2023-03-29T02:09:28.733Z,4.80
2023-03-29T02:11:57.375Z,3.80
2023-03-29T02:14:25.574Z,4.03
2023-03-29T02:16:52.671Z,4.23
2023-03-29T02:19:20.334Z,4.03
2023-03-29T02:21:57.187Z,4.10
2023-03-29T02:24:25.146Z,3.90
2023-03-29T02:26:52.560Z,3.80
2023-03-29T02:29:19.626Z,4.30
2023-03-29T02:31:52.439Z,3.90
2023-03-29T02:34:29.633Z,4.20
2023-03-29T02:37:01.057Z,4.30
2023-03-29T02:39:29.774Z,3.90
2023-03-29T02:41:57.019Z,3.93
2023-03-29T02:44:28.834Z,4.43
2023-03-29T02:46:57.953Z,4.30
2023-03-29T02:49:25.262Z,4.10
2023-03-29T02:51:54.765Z,3.97
2023-03-29T02:54:23.446Z,3.97
2023-03-29T02:56:55.667Z,3.70
2023-03-29T02:59:22.894Z,5.37
2023-03-29T03:01:50.026Z,4.13
2023-03-29T03:04:18.525Z,4.70
2023-03-29T03:06:45.589Z,4.40
2023-03-29T03:09:12.663Z,4.30
2023-03-29T03:11:39.870Z,4.37
2023-03-29T03:14:07.566Z,4.10
2023-03-29T03:16:35.191Z,4.40
2023-03-29T03:19:02.551Z,4.07
2023-03-29T03:21:29.653Z,3.83
2023-03-29T03:23:56.894Z,4.30
2023-03-29T03:26:30.202Z,4.57
2023-03-29T03:28:57.585Z,4.23
2023-03-29T03:31:24.672Z,4.37
2023-03-29T03:33:52.812Z,4.30
2023-03-29T03:36:19.870Z,4.30
2023-03-29T03:38:47.630Z,5.33
2023-03-29T03:41:14.762Z,5.23
2023-03-29T03:43:43.771Z,4.03
2023-03-29T03:46:10.900Z,4.50
2023-03-29T03:48:38.380Z,4.07
2023-03-29T03:51:05.591Z,4.63
2023-03-29T03:53:33.729Z,4.57
2023-03-29T03:56:02.185Z,4.10
2023-03-29T03:58:29.407Z,4.27
2023-03-29T04:00:56.517Z,4.60
2023-03-29T04:03:24.325Z,4.10
2023-03-29T04:05:51.415Z,4.37
2023-03-29T04:08:19.072Z,4.70
2023-03-29T04:10:53.168Z,4.57
2023-03-29T04:13:20.608Z,5.00
2023-03-29T04:15:49.725Z,3.97
2023-03-29T04:18:17.426Z,4.60
2023-03-29T04:20:44.597Z,4.53
2023-03-29T04:23:11.681Z,4.50
2023-03-29T04:25:38.735Z,4.33
2023-03-29T04:28:06.012Z,4.17
2023-03-29T04:30:33.046Z,4.90
2023-03-29T04:33:00.480Z,4.20
2023-03-29T04:35:27.576Z,4.83
2023-03-29T04:37:57.620Z,4.33
2023-03-29T04:40:25.080Z,3.83
2023-03-29T04:42:52.960Z,4.17
2023-03-29T04:45:20.036Z,4.07
2023-03-29T04:47:47.222Z,3.50
2023-03-29T04:50:14.522Z,4.30
2023-03-29T04:52:42.055Z,3.70
2023-03-29T04:55:09.401Z,3.77
2023-03-29T04:57:36.496Z,4.40
2023-03-29T05:00:13.637Z,4.10
2023-03-29T05:02:42.866Z,3.73
2023-03-29T05:05:10.279Z,3.80
2023-03-29T05:07:37.549Z,3.53
2023-03-29T05:10:05.480Z,3.87
2023-03-29T05:12:32.855Z,4.53
2023-03-29T05:14:59.944Z,3.50
2023-03-29T05:17:27.235Z,4.47
2023-03-29T05:19:55.023Z,3.93
2023-03-29T05:22:23.512Z,4.80
2023-03-29T05:24:52.778Z,4.33
2023-03-29T05:27:20.985Z,4.23
2023-03-29T05:29:48.940Z,4.73
2023-03-29T05:32:16.023Z,4.87
2023-03-29T05:34:43.455Z,4.67
2023-03-29T05:37:10.624Z,4.67
2023-03-29T05:39:38.003Z,5.20
2023-03-29T05:42:05.862Z,5.70
2023-03-29T05:44:33.089Z,5.97
2023-03-29T05:47:00.297Z,5.00
2023-03-29T05:49:27.408Z,5.80
2023-03-29T05:51:56.894Z,5.37
2023-03-29T05:54:24.529Z,6.60
2023-03-29T05:56:52.185Z,6.10
2023-03-29T05:59:19.697Z,7.00
2023-03-29T06:01:46.942Z,7.03
2023-03-29T06:04:14.773Z,7.50
2023-03-29T06:06:42.252Z,8.13
2023-03-29T06:09:09.880Z,7.57
2023-03-29T06:11:37.073Z,7.60
2023-03-29T06:14:04.648Z,6.73
2023-03-29T06:16:32.373Z,6.30
2023-03-29T06:18:59.456Z,6.77
2023-03-29T06:21:28.101Z,6.27
2023-03-29T06:23:55.396Z,7.20
2023-03-29T06:26:22.923Z,6.80
2023-03-29T06:28:52.111Z,6.57
2023-03-29T06:31:19.905Z,6.00
2023-03-29T06:33:49.355Z,6.50
2023-03-29T06:36:16.833Z,6.17
2023-03-29T06:38:45.824Z,6.70
2023-03-29T06:41:12.890Z,5.87
2023-03-29T06:43:40.113Z,7.00
2023-03-29T06:46:12.347Z,7.00
2023-03-29T06:48:41.077Z,6.13
2023-03-29T06:51:08.292Z,5.90
2023-03-29T06:53:36.577Z,7.57
2023-03-29T06:56:08.828Z,6.10
2023-03-29T06:58:36.108Z,5.27
2023-03-29T07:01:04.014Z,6.10
2023-03-29T07:03:33.552Z,6.13
2023-03-29T07:06:03.930Z,5.30
2023-03-29T07:08:31.643Z,6.73
2023-03-29T07:10:59.303Z,5.53
2023-03-29T07:13:27.540Z,5.50
2023-03-29T07:15:54.799Z,5.47
2023-03-29T07:18:22.061Z,5.77
2023-03-29T07:20:49.213Z,5.57
2023-03-29T07:23:17.074Z,5.40
2023-03-29T07:25:44.764Z,5.20
2023-03-29T07:28:11.878Z,5.20
2023-03-29T07:30:39.210Z,5.60
2023-03-29T07:33:06.476Z,5.40
2023-03-29T07:35:33.801Z,5.27
2023-03-29T07:38:01.058Z,5.80
2023-03-29T07:40:28.224Z,5.10
2023-03-29T07:42:56.638Z,5.33
2023-03-29T07:45:26.612Z,4.90
2023-03-29T07:47:57.030Z,4.83
2023-03-29T07:50:24.580Z,5.70
2023-03-29T07:52:51.726Z,5.57
2023-03-29T07:55:18.867Z,5.33
2023-03-29T07:57:46.114Z,5.60
2023-03-29T08:00:17.337Z,4.83
2023-03-29T08:02:44.991Z,4.80
2023-03-29T08:05:23.213Z,4.80
2023-03-29T08:07:56.875Z,5.33
2023-03-29T08:10:24.213Z,4.50
2023-03-29T08:12:52.360Z,4.60
2023-03-29T08:15:19.510Z,5.40
2023-03-29T08:17:46.676Z,5.10
2023-03-29T08:20:15.577Z,4.77
2023-03-29T08:22:43.151Z,5.33
2023-03-29T08:25:12.154Z,4.97
2023-03-29T08:27:39.631Z,5.40
2023-03-29T08:30:08.120Z,4.87
2023-03-29T08:32:35.449Z,4.20
2023-03-29T08:35:04.520Z,4.90
2023-03-29T08:37:32.584Z,4.07
2023-03-29T08:39:59.851Z,4.37
2023-03-29T08:42:36.712Z,4.43
2023-03-29T08:45:14.724Z,4.43
2023-03-29T08:48:08.422Z,4.87
2023-03-29T08:50:46.050Z,3.97
2023-03-29T08:53:16.932Z,4.70
2023-03-29T08:55:45.810Z,5.00
2023-03-29T08:58:14.941Z,4.93
2023-03-29T09:00:43.808Z,4.37
2023-03-29T09:03:15.911Z,4.37
2023-03-29T09:05:47.385Z,5.07
2023-03-29T09:08:17.537Z,4.10
2023-03-29T09:10:47.560Z,4.07
2023-03-29T09:13:26.648Z,4.67
2023-03-29T09:15:57.067Z,4.23
2023-03-29T09:18:42.257Z,4.23
2023-03-29T09:21:26.515Z,4.50
2023-03-29T09:24:12.303Z,4.80
2023-03-29T09:26:49.650Z,4.57
2023-03-29T09:29:26.071Z,4.27
2023-03-29T09:31:53.967Z,4.17
2023-03-29T09:34:24.667Z,4.87
2023-03-29T09:36:53.236Z,4.70
2023-03-29T09:39:23.860Z,5.07
2023-03-29T09:41:54.375Z,4.50
2023-03-29T09:44:30.786Z,4.20
2023-03-29T09:47:28.057Z,4.20
2023-03-29T09:50:27.300Z,4.53
2023-03-29T09:52:57.164Z,4.70
2023-03-29T09:55:27.513Z,4.93
2023-03-29T09:57:54.918Z,5.30
2023-03-29T10:00:22.262Z,5.23
2023-03-29T10:02:53.752Z,4.80
2023-03-29T10:05:21.873Z,4.63
2023-03-29T10:07:51.540Z,5.13
2023-03-29T10:10:22.201Z,5.57
2023-03-29T10:12:53.323Z,5.30
2023-03-29T10:15:29.245Z,5.33
2023-03-29T10:18:04.193Z,5.03
2023-03-29T10:20:31.581Z,5.80
2023-03-29T10:22:59.470Z,5.73
2023-03-29T10:25:28.271Z,6.40
2023-03-29T10:27:59.086Z,5.27
2023-03-29T10:30:26.254Z,5.50
2023-03-29T10:32:58.191Z,5.53
2023-03-29T10:35:40.292Z,6.00
2023-03-29T10:38:10.676Z,5.60
2023-03-29T10:40:43.329Z,5.83
2023-03-29T10:43:24.582Z,5.33
2023-03-29T10:45:53.641Z,6.83
2023-03-29T10:48:25.000Z,5.90
2023-03-29T10:50:53.358Z,6.10
2023-03-29T10:53:24.854Z,6.20
2023-03-29T10:55:54.852Z,6.43
2023-03-29T10:58:27.716Z,7.17
2023-03-29T11:00:58.298Z,7.20
2023-03-29T11:03:44.757Z,6.63
2023-03-29T11:06:32.447Z,6.87
2023-03-29T11:09:01.008Z,6.50
2023-03-29T11:11:47.189Z,6.90
2023-03-29T11:14:14.218Z,9.37
2023-03-29T11:17:01.535Z,7.40
2023-03-29T11:19:42.820Z,7.93
2023-03-29T11:22:12.842Z,9.27
2023-03-29T11:24:55.218Z,8.37
2023-03-29T11:27:39.338Z,9.27
2023-03-29T11:30:25.484Z,8.77
2023-03-29T11:32:53.017Z,9.20
2023-03-29T11:35:43.285Z,8.97
2023-03-29T11:38:45.112Z,8.97
2023-03-29T11:41:18.784Z,8.73
2023-03-29T11:43:45.805Z,8.40
2023-03-29T11:46:16.703Z,7.37
2023-03-29T11:48:56.731Z,7.90
2023-03-29T11:51:26.317Z,8.13
2023-03-29T11:54:01.926Z,7.43
2023-03-29T11:56:35.595Z,7.83
2023-03-29T11:59:08.417Z,8.20
2023-03-29T12:01:39.266Z,7.57
2023-03-29T12:04:11.638Z,7.90
2023-03-29T12:06:46.298Z,7.47
2023-03-29T12:09:22.708Z,7.53
2023-03-29T12:11:55.035Z,6.80
2023-03-29T12:14:28.536Z,7.50
2023-03-29T12:17:01.110Z,8.00
2023-03-29T12:19:43.185Z,7.87
2023-03-29T12:22:11.179Z,7.83
2023-03-29T12:24:40.309Z,7.63
2023-03-29T12:27:08.229Z,7.43
2023-03-29T12:29:44.180Z,6.80
2023-03-29T12:32:14.281Z,6.77
2023-03-29T12:34:50.564Z,7.07
2023-03-29T12:37:29.789Z,6.53
2023-03-29T12:40:02.199Z,6.67
2023-03-29T12:42:29.289Z,9.30
2023-03-29T12:45:00.290Z,8.10
2023-03-29T12:47:29.920Z,7.27
2023-03-29T12:49:58.096Z,10.80
2023-03-29T12:52:32.118Z,7.13
2023-03-29T12:55:00.180Z,6.70
2023-03-29T12:57:49.962Z,6.47
2023-03-29T13:00:21.594Z,7.60
2023-03-29T13:03:00.011Z,6.90
2023-03-29T13:05:29.132Z,6.10
2023-03-29T13:07:56.464Z,6.70
2023-03-29T13:10:42.107Z,7.13
2023-03-29T13:13:16.096Z,21.70
2023-03-29T13:15:43.753Z,6.90
2023-03-29T13:18:18.025Z,6.53
2023-03-29T13:21:04.078Z,6.97
2023-03-29T13:23:31.771Z,6.13
2023-03-29T13:26:13.680Z,6.30
2023-03-29T13:28:58.523Z,6.20
2023-03-29T13:31:28.766Z,5.73
2023-03-29T13:34:04.202Z,5.80
2023-03-29T13:36:33.107Z,5.33
2023-03-29T13:39:02.900Z,5.93
2023-03-29T13:41:34.329Z,5.50
2023-03-29T13:44:01.767Z,5.10
2023-03-29T13:46:42.066Z,5.33
2023-03-29T13:49:20.343Z,5.27
2023-03-29T13:52:07.113Z,5.33
2023-03-29T13:54:34.122Z,5.80
2023-03-29T13:57:11.708Z,5.47
2023-03-29T13:59:57.630Z,6.07
2023-03-29T14:02:43.665Z,5.07
2023-03-29T14:05:13.060Z,5.00
2023-03-29T14:07:42.136Z,5.10
2023-03-29T14:10:12.647Z,6.20
2023-03-29T14:12:42.069Z,5.70
2023-03-29T14:15:19.302Z,5.50
2023-03-29T14:17:48.094Z,5.73
2023-03-29T14:20:15.908Z,5.70
2023-03-29T14:22:44.232Z,5.67
2023-03-29T14:25:17.246Z,6.20
2023-03-29T14:27:44.616Z,5.87
2023-03-29T14:30:23.304Z,6.33
2023-03-29T14:32:51.261Z,6.23
2023-03-29T14:35:18.693Z,6.27
2023-03-29T14:37:46.826Z,6.90
2023-03-29T14:40:19.348Z,6.07
2023-03-29T14:42:47.270Z,6.57
2023-03-29T14:45:16.131Z,6.93
2023-03-29T14:47:44.532Z,6.20
2023-03-29T14:50:19.593Z,6.27
2023-03-29T14:52:49.243Z,6.27
2023-03-29T14:55:19.199Z,6.00
2023-03-29T14:57:47.810Z,6.03
2023-03-29T15:00:24.541Z,6.47
2023-03-29T15:02:56.732Z,6.37
2023-03-29T15:05:31.892Z,6.40
2023-03-29T15:07:59.400Z,6.93
2023-03-29T15:10:27.125Z,6.50
2023-03-29T15:12:54.741Z,7.30
2023-03-29T15:15:24.120Z,7.00
2023-03-29T15:17:52.776Z,6.43
2023-03-29T15:20:23.275Z,6.47
2023-03-29T15:23:13.647Z,6.60
2023-03-29T15:25:49.061Z,6.40
2023-03-29T15:28:28.398Z,6.63
2023-03-29T15:33:37.665Z,6.30
2023-03-29T15:36:07.472Z,6.23
2023-03-29T15:38:43.231Z,6.27
2023-03-29T15:41:12.229Z,6.57
2023-03-29T15:43:39.334Z,6.57
2023-03-29T15:46:06.718Z,6.17
2023-03-29T15:48:34.061Z,6.60
2023-03-29T15:51:05.450Z,5.97
2023-03-29T15:53:33.703Z,6.20
2023-03-29T15:56:02.545Z,5.63
2023-03-29T15:58:31.588Z,6.03
2023-03-29T16:01:23.580Z,5.83
2023-03-29T16:03:50.939Z,5.73
2023-03-29T16:06:18.296Z,5.10
2023-03-29T16:08:46.052Z,5.53
2023-03-29T16:11:13.226Z,5.27
2023-03-29T16:13:40.372Z,5.20
2023-03-29T16:16:08.227Z,4.70
2023-03-29T16:18:35.947Z,4.60
2023-03-29T16:21:03.463Z,4.43
2023-03-29T16:23:30.500Z,5.10
2023-03-29T16:25:59.162Z,4.60
2023-03-29T16:28:26.451Z,5.03
2023-03-29T16:30:53.502Z,5.43
2023-03-29T16:33:20.680Z,5.33
2023-03-29T16:35:47.864Z,4.87
2023-03-29T16:38:14.900Z,4.77
2023-03-29T16:40:42.613Z,5.00
2023-03-29T16:43:14.970Z,5.63
2023-03-29T16:45:42.300Z,4.50
2023-03-29T16:48:19.308Z,5.70
2023-03-29T16:50:50.020Z,4.77
2023-03-29T16:53:21.708Z,5.87
2023-03-29T16:55:50.523Z,6.27
2023-03-29T16:58:17.622Z,5.77
2023-03-29T17:00:47.244Z,5.07
2023-03-29T17:03:15.454Z,4.27
2023-03-29T17:05:47.411Z,4.90
2023-03-29T17:08:14.647Z,4.73
2023-03-29T17:10:42.327Z,4.37
2023-03-29T17:13:09.805Z,4.43
2023-03-29T17:15:39.587Z,3.80
2023-03-29T17:18:07.159Z,4.30
2023-03-29T17:20:34.283Z,4.23
2023-03-29T17:23:01.366Z,4.30
2023-03-29T17:25:28.424Z,3.97
2023-03-29T17:27:55.595Z,4.73
2023-03-29T17:30:22.746Z,4.77
2023-03-29T17:32:49.971Z,4.43
2023-03-29T17:35:17.076Z,4.40
2023-03-29T17:37:44.126Z,4.20
2023-03-29T17:40:13.871Z,4.70
2023-03-29T17:42:42.797Z,4.27
2023-03-29T17:45:10.835Z,5.00
2023-03-29T17:47:38.254Z,4.93
2023-03-29T17:50:06.171Z,5.00
2023-03-29T17:52:33.398Z,4.40
2023-03-29T17:55:00.499Z,4.57
2023-03-29T17:57:27.891Z,4.70
2023-03-29T17:59:55.313Z,3.87
2023-03-29T18:02:23.381Z,4.60
2023-03-29T18:04:51.748Z,5.07
2023-03-29T18:07:18.902Z,4.70
2023-03-29T18:09:46.118Z,4.80
2023-03-29T18:12:13.338Z,5.10
2023-03-29T18:14:40.728Z,4.77
2023-03-29T18:17:07.955Z,5.60
2023-03-29T18:19:35.138Z,5.90
2023-03-29T18:22:02.195Z,5.03
2023-03-29T18:24:29.325Z,5.23
2023-03-29T18:26:56.489Z,5.27
2023-03-29T18:29:23.988Z,5.37
2023-03-29T18:31:51.528Z,5.57
2023-03-29T18:34:18.672Z,4.93
2023-03-29T18:36:46.648Z,5.10
2023-03-29T18:39:13.696Z,5.63
2023-03-29T18:41:40.806Z,5.90
2023-03-29T18:44:07.976Z,5.73
2023-03-29T18:46:35.330Z,5.07
2023-03-29T18:49:02.840Z,5.33
2023-03-29T18:51:30.967Z,5.37
2023-03-29T18:53:58.081Z,4.60
2023-03-29T18:56:31.693Z,4.97
2023-03-29T18:58:58.714Z,5.60
2023-03-29T19:01:28.873Z,5.27
2023-03-29T19:03:56.063Z,6.33
2023-03-29T19:06:23.218Z,6.17
2023-03-29T19:08:50.440Z,6.60
2023-03-29T19:11:17.498Z,6.03
2023-03-29T19:13:46.290Z,5.73
2023-03-29T19:16:13.507Z,5.60
2023-03-29T19:18:41.999Z,4.70
2023-03-29T19:21:09.284Z,5.13
2023-03-29T19:23:36.414Z,5.07
2023-03-29T19:26:05.431Z,6.17
2023-03-29T19:28:33.686Z,5.60
2023-03-29T19:31:01.355Z,5.53
2023-03-29T19:33:29.339Z,6.23
2023-03-29T19:35:56.671Z,6.00
2023-03-29T19:38:24.488Z,6.17
2023-03-29T19:40:52.028Z,6.53
2023-03-29T19:43:20.593Z,6.00
2023-03-29T19:45:48.868Z,5.80
2023-03-29T19:48:22.422Z,5.73
2023-03-29T19:50:53.765Z,5.40
2023-03-29T19:53:21.051Z,6.67
2023-03-29T19:55:55.954Z,6.80
2023-03-29T19:58:23.022Z,6.00
2023-03-29T20:00:53.135Z,6.57
2023-03-29T20:03:23.170Z,5.77
2023-03-29T20:05:51.382Z,5.60
2023-03-29T20:08:18.537Z,5.97
2023-03-29T20:10:45.712Z,6.20
2023-03-29T20:13:13.019Z,6.10
2023-03-29T20:15:41.586Z,5.80
2023-03-29T20:18:08.654Z,6.10
2023-03-29T20:20:35.911Z,6.60
2023-03-29T20:23:05.266Z,5.80
2023-03-29T20:25:33.023Z,5.70
2023-03-29T20:28:00.436Z,6.10
2023-03-29T20:30:30.136Z,5.83
2023-03-29T20:32:57.294Z,6.23
2023-03-29T20:35:24.332Z,6.00
2023-03-29T20:37:51.663Z,5.67
2023-03-29T20:40:24.702Z,5.77
2023-03-29T20:42:54.056Z,5.77
2023-03-29T20:45:21.175Z,5.17
2023-03-29T20:47:57.528Z,5.70
2023-03-29T20:50:28.726Z,5.53
2023-03-29T20:52:56.406Z,5.77
2023-03-29T20:55:24.196Z,6.17
2023-03-29T20:57:54.023Z,5.70
2023-03-29T21:00:22.316Z,5.20
2023-03-29T21:02:52.550Z,5.27
2023-03-29T21:05:20.021Z,5.80
2023-03-29T21:07:48.194Z,5.20
2023-03-29T21:10:15.975Z,5.67
2023-03-29T21:12:43.030Z,5.67
2023-03-29T21:15:10.922Z,5.73
2023-03-29T21:17:38.074Z,5.73
2023-03-29T21:20:11.939Z,6.17
2023-03-29T21:22:39.510Z,6.20
2023-03-29T21:25:08.078Z,6.03
2023-03-29T21:27:35.706Z,5.77
2023-03-29T21:30:03.307Z,6.00
2023-03-29T21:32:31.361Z,5.00
2023-03-29T21:34:58.615Z,5.83
2023-03-29T21:37:25.759Z,5.00
2023-03-29T21:39:52.813Z,5.80
2023-03-29T21:42:19.875Z,5.17
2023-03-29T21:44:46.947Z,5.00
2023-03-29T21:47:14.053Z,5.00
2023-03-29T21:49:42.418Z,5.00
2023-03-29T21:52:09.537Z,5.47
2023-03-29T21:54:36.628Z,4.77
2023-03-29T21:57:03.764Z,5.10
2023-03-29T21:59:30.970Z,5.00
2023-03-29T22:01:58.081Z,4.43
2023-03-29T22:04:36.082Z,4.40
2023-03-29T22:07:04.897Z,4.93
2023-03-29T22:09:33.200Z,4.80
2023-03-29T22:12:01.774Z,4.90
2023-03-29T22:14:33.017Z,4.83
2023-03-29T22:17:00.125Z,4.43
2023-03-29T22:19:27.159Z,4.03
2023-03-29T22:22:01.192Z,4.73
2023-03-29T22:24:28.988Z,4.27
2023-03-29T22:26:56.111Z,4.43
2023-03-29T22:29:23.174Z,4.70
2023-03-29T22:31:50.460Z,4.90
2023-03-29T22:34:17.708Z,4.60
2023-03-29T22:36:44.919Z,4.60
2023-03-29T22:39:13.568Z,3.97
2023-03-29T22:41:41.681Z,3.90
2023-03-29T22:44:08.801Z,4.27
2023-03-29T22:46:36.119Z,4.20
2023-03-29T22:49:03.387Z,4.00
2023-03-29T22:51:30.471Z,4.20
2023-03-29T22:53:57.720Z,4.10
2023-03-29T22:56:24.763Z,4.73
2023-03-29T22:58:51.885Z,4.27
2023-03-29T23:01:18.940Z,5.00
2023-03-29T23:03:46.190Z,5.47
2023-03-29T23:06:13.298Z,5.23
2023-03-29T23:08:40.416Z,3.97
2023-03-29T23:11:07.655Z,4.47
2023-03-29T23:13:35.715Z,3.90
2023-03-29T23:16:03.660Z,5.43
2023-03-29T23:18:32.085Z,4.17
2023-03-29T23:21:00.050Z,4.27
2023-03-29T23:23:27.556Z,4.80
2023-03-29T23:25:55.579Z,5.13
2023-03-29T23:28:24.846Z,3.87
2023-03-29T23:31:03.221Z,4.20
2023-03-29T23:33:33.448Z,4.10
2023-03-29T23:36:01.516Z,4.60
2023-03-29T23:38:28.580Z,4.33
2023-03-29T23:40:58.799Z,4.10
2023-03-29T23:43:27.348Z,4.33
2023-03-29T23:45:57.941Z,4.20
2023-03-29T23:48:25.933Z,4.40
2023-03-29T23:50:52.996Z,4.50
2023-03-29T23:53:20.856Z,3.80
2023-03-29T23:55:48.400Z,3.90
2023-03-29T23:58:16.584Z,4.37
